Time;durP1;ratioP1;P1;durP2;ratioP2;P2;SDS_P1;SDS_P2;PMS_P1;PMS_P2;Temp;Humidity;BMP_temperature;BMP_pressure;BME280_temperature;BME280_humidity;BME280_pressure;Samples;Min_cycle;Max_cycle;Signal;HPM_P1;HPM_P2
2022/06/09 00:00:32;;;;;;;25.65;12.50;;;15.00;37.40;;;;;;4994172;28;20082;-82
2022/06/09 00:03:03;;;;;;;27.30;12.27;;;15.00;22.70;;;;;;4965185;28;20039;-82
2022/06/09 00:05:31;;;;;;;35.63;12.73;;;15.10;1.00;;;;;;4970749;28;20462;-82
2022/06/09 00:07:58;;;;;;;32.33;13.05;;;15.10;1.00;;;;;;4963044;28;20177;-82
2022/06/09 00:10:30;;;;;;;30.73;13.23;;;15.00;1.00;;;;;;4968656;28;20046;-82
2022/06/09 00:12:56;;;;;;;35.47;13.68;;;15.00;1.00;;;;;;4968288;28;21476;-82
2022/06/09 00:15:22;;;;;;;28.98;11.63;;;15.00;1.00;;;;;;4968288;28;20131;-82
2022/06/09 00:17:50;;;;;;;37.05;13.80;;;15.00;1.00;;;;;;4968505;28;20050;-82
2022/06/09 00:20:17;;;;;;;32.00;13.55;;;15.00;1.00;;;;;;4971029;28;20914;-82
2022/06/09 00:22:43;;;;;;;29.73;12.77;;;15.00;1.00;;;;;;4993120;28;20203;-82
2022/06/09 00:25:10;;;;;;;34.08;13.07;;;14.90;1.00;;;;;;4983010;28;20438;-82
2022/06/09 00:27:36;;;;;;;30.55;13.20;;;15.00;1.00;;;;;;4966747;28;20096;-82
2022/06/09 00:30:04;;;;;;;30.58;12.90;;;15.00;1.00;;;;;;4970762;28;20065;-81
2022/06/09 00:32:29;;;;;;;35.60;13.18;;;15.00;1.00;;;;;;4972015;28;20037;-82
2022/06/09 00:34:55;;;;;;;35.40;13.45;;;14.90;1.00;;;;;;4972306;28;20353;-82
2022/06/09 00:37:21;;;;;;;33.22;13.10;;;14.80;1.00;;;;;;4984847;28;20571;-82
2022/06/09 00:39:47;;;;;;;29.40;13.35;;;14.90;1.00;;;;;;4963959;28;20045;-82
2022/06/09 00:42:12;;;;;;;28.23;12.77;;;15.00;1.00;;;;;;4993244;28;20054;-82
2022/06/09 00:44:38;;;;;;;27.70;12.20;;;15.00;1.00;;;;;;4975729;28;20053;-82
2022/06/09 00:47:23;;;;;;;30.58;12.48;;;14.90;1.00;;;;;;4967179;28;20052;-82
2022/06/09 00:50:14;;;;;;;32.28;11.80;;;14.90;1.00;;;;;;4976606;28;20114;-82
2022/06/09 00:52:46;;;;;;;30.40;12.82;;;14.80;1.00;;;;;;4967231;28;20498;-82
2022/06/09 00:55:17;;;;;;;34.63;13.48;;;14.90;1.00;;;;;;4966346;28;20514;-82
2022/06/09 00:57:54;;;;;;;26.38;11.82;;;14.80;1.00;;;;;;4990571;28;20420;-82
2022/06/09 01:00:27;;;;;;;28.48;12.27;;;14.90;1.00;;;;;;4982545;28;20053;-82
2022/06/09 01:02:57;;;;;;;33.00;12.00;;;14.90;1.00;;;;;;4967937;28;20054;-82
2022/06/09 01:05:25;;;;;;;31.58;12.02;;;14.90;1.00;;;;;;4973137;28;20061;-82
2022/06/09 01:07:54;;;;;;;38.00;13.40;;;14.90;1.00;;;;;;4964737;28;20498;-82
2022/06/09 01:10:23;;;;;;;30.45;12.45;;;14.90;1.00;;;;;;4969420;28;20049;-82
2022/06/09 01:12:49;;;;;;;33.30;13.48;;;14.80;1.00;;;;;;4966651;28;20039;-82
2022/06/09 01:15:18;;;;;;;35.00;12.77;;;14.80;1.00;;;;;;4994089;28;20045;-82
2022/06/09 01:17:50;;;;;;;37.05;12.85;;;14.90;1.00;;;;;;4969032;28;20200;-82
2022/06/09 01:20:23;;;;;;;26.73;12.15;;;14.80;1.00;;;;;;4966568;28;20034;-82
2022/06/09 01:22:56;;;;;;;32.55;13.40;;;14.90;1.00;;;;;;4966409;28;20096;-82
2022/06/09 01:25:58;;;;;;;31.58;12.45;;;14.90;1.00;;;;;;4964606;28;20419;-82
2022/06/09 01:28:54;;;;;;;44.58;13.27;;;14.80;1.00;;;;;;4974895;28;20265;-82
2022/06/09 01:31:42;;;;;;;32.45;13.50;;;14.80;1.00;;;;;;4986238;28;20068;-81
2022/06/09 01:34:41;;;;;;;33.28;13.32;;;14.80;1.00;;;;;;4986301;28;20039;-81
2022/06/09 01:37:13;;;;;;;32.85;12.98;;;14.80;1.00;;;;;;4984598;28;20050;-82
2022/06/09 01:39:45;;;;;;;33.25;13.73;;;14.70;1.00;;;;;;4967482;28;20113;-82
2022/06/09 01:42:41;;;;;;;32.53;14.18;;;14.70;1.00;;;;;;4963416;28;20130;-82
2022/06/09 01:45:13;;;;;;;39.33;15.73;;;14.70;1.00;;;;;;4993204;28;20054;-82
2022/06/09 01:48:04;;;;;;;44.38;17.35;;;14.70;1.00;;;;;;4978611;28;20066;-82
2022/06/09 01:50:48;;;;;;;39.20;17.50;;;14.70;7.30;;;;;;4991127;28;20035;-82
2022/06/09 01:53:20;;;;;;;31.65;16.80;;;14.70;38.90;;;;;;4963587;28;20049;-82
2022/06/09 01:55:54;;;;;;;44.78;17.30;;;14.60;22.50;;;;;;4990207;28;20353;-82
2022/06/09 01:58:25;;;;;;;34.40;17.05;;;14.70;10.90;;;;;;4968989;28;20046;-82
2022/06/09 02:00:54;;;;;;;32.45;16.08;;;14.60;1.00;;;;;;4981290;28;20112;-82
2022/06/09 02:03:24;;;;;;;32.60;16.13;;;14.70;1.00;;;;;;4970213;28;20042;-82
2022/06/09 02:05:53;;;;;;;36.28;16.13;;;14.60;13.10;;;;;;4970057;28;20042;-82
2022/06/09 02:08:23;;;;;;;39.25;16.05;;;14.60;11.20;;;;;;4979834;28;20055;-82
2022/06/09 02:10:54;;;;;;;35.00;16.23;;;14.60;61.70;;;;;;4990567;28;20453;-82
2022/06/09 02:13:43;;;;;;;42.22;16.67;;;14.60;44.00;;;;;;4966943;28;20034;-82
2022/06/09 02:16:14;;;;;;;41.70;16.05;;;14.50;65.10;;;;;;4963644;28;20412;-82
2022/06/09 02:18:47;;;;;;;35.22;15.40;;;14.50;48.80;;;;;;4966473;28;20054;-81
2022/06/09 02:21:34;;;;;;;33.95;14.82;;;14.50;26.90;;;;;;4966433;28;20046;-82
2022/06/09 02:24:00;;;;;;;33.92;15.25;;;14.50;35.70;;;;;;4962277;28;21135;-81
2022/06/09 02:26:27;;;;;;;40.28;15.95;;;14.50;56.70;;;;;;4950572;28;20547;-82
2022/06/09 02:28:53;;;;;;;40.33;15.00;;;14.50;8.60;;;;;;4985826;28;20106;-82
2022/06/09 02:31:20;;;;;;;36.47;15.52;;;14.50;10.80;;;;;;4990246;28;20229;-82
2022/06/09 02:33:47;;;;;;;41.47;15.63;;;14.50;1.00;;;;;;4969980;28;20394;-81
2022/06/09 02:36:13;;;;;;;44.05;16.23;;;14.40;1.00;;;;;;4968067;28;20042;-81
2022/06/09 02:38:39;;;;;;;38.03;14.27;;;14.50;1.00;;;;;;4983666;28;20042;-81
2022/06/09 02:41:05;;;;;;;39.58;15.40;;;14.40;1.00;;;;;;4968090;28;20038;-82
2022/06/09 02:43:31;;;;;;;35.38;15.88;;;14.40;10.50;;;;;;4959944;28;20390;-81
2022/06/09 02:45:57;;;;;;;33.35;16.33;;;14.40;1.00;;;;;;4983847;28;20047;-81
2022/06/09 02:48:23;;;;;;;39.85;16.55;;;14.40;1.00;;;;;;4979901;28;20497;-81
2022/06/09 02:50:51;;;;;;;42.42;17.30;;;14.40;1.90;;;;;;4968228;28;20201;-82
2022/06/09 02:53:17;;;;;;;35.70;16.45;;;14.30;1.00;;;;;;4962708;28;20070;-82
2022/06/09 02:55:43;;;;;;;40.83;17.65;;;14.40;1.00;;;;;;4965074;28;20386;-82
2022/06/09 02:58:10;;;;;;;46.47;18.55;;;14.30;99.90;;;;;;4981817;28;20470;-81
2022/06/09 03:00:36;;;;;;;46.10;18.98;;;14.40;99.90;;;;;;4969964;28;20046;-82
2022/06/09 03:03:05;;;;;;;46.63;18.95;;;14.40;99.90;;;;;;4969849;28;20049;-82
2022/06/09 03:05:34;;;;;;;36.22;17.48;;;14.40;99.90;;;;;;4973998;28;20485;-81
2022/06/09 03:08:00;;;;;;;49.28;19.48;;;14.40;99.90;;;;;;4964887;28;20049;-81
2022/06/09 03:10:26;;;;;;;34.75;17.60;;;14.30;99.90;;;;;;4974469;28;20031;-81
2022/06/09 03:12:53;;;;;;;36.42;17.83;;;14.40;99.90;;;;;;4967820;28;20039;-82
2022/06/09 03:15:21;;;;;;;45.55;17.98;;;14.30;99.90;;;;;;4973527;28;20196;-82
2022/06/09 03:17:46;;;;;;;38.22;18.02;;;14.40;99.90;;;;;;4971216;28;20064;-82
2022/06/09 03:20:19;;;;;;;38.08;18.00;;;14.30;99.90;;;;;;4969793;28;20038;-81
2022/06/09 03:22:46;;;;;;;36.22;17.88;;;14.40;99.90;;;;;;4992900;28;20142;-81
2022/06/09 03:25:12;;;;;;;48.92;20.08;;;14.40;99.90;;;;;;4964719;28;20118;-81
2022/06/09 03:27:37;;;;;;;41.05;17.95;;;14.40;99.90;;;;;;4967084;28;20628;-81
2022/06/09 03:30:10;;;;;;;42.45;18.42;;;14.40;99.90;;;;;;4989733;28;20066;-81
2022/06/09 03:32:36;;;;;;;44.13;18.80;;;14.30;99.90;;;;;;4984031;28;20439;-82
2022/06/09 03:35:02;;;;;;;37.40;17.63;;;14.30;99.90;;;;;;4968743;28;20113;-81
2022/06/09 03:37:28;;;;;;;35.97;17.45;;;14.30;99.90;;;;;;4970347;28;20043;-82
2022/06/09 03:39:53;;;;;;;36.53;17.65;;;14.40;63.20;;;;;;4985320;28;20381;-81
2022/06/09 03:42:19;;;;;;;35.53;17.85;;;14.40;99.90;;;;;;4967411;28;20545;-81
2022/06/09 03:44:46;;;;;;;42.10;18.73;;;14.40;99.90;;;;;;4970626;28;20122;-81
2022/06/09 03:47:11;;;;;;;38.30;17.40;;;14.40;99.90;;;;;;4966345;28;21045;-81
2022/06/09 03:49:37;;;;;;;37.15;18.30;;;14.40;99.90;;;;;;4964353;28;20096;-81
2022/06/09 03:52:04;;;;;;;34.10;17.30;;;14.40;99.90;;;;;;4972706;28;20060;-81
2022/06/09 03:54:29;;;;;;;39.28;17.83;;;14.30;99.90;;;;;;4967156;28;20104;-81
2022/06/09 03:56:55;;;;;;;39.72;18.23;;;14.40;99.90;;;;;;4967499;28;20397;-81
2022/06/09 03:59:21;;;;;;;33.08;18.05;;;14.40;1.00;;;;;;4985712;28;20042;-81
2022/06/09 04:01:47;;;;;;;32.20;16.55;;;14.40;99.90;;;;;;4982676;28;20038;-81
2022/06/09 04:04:12;;;;;;;44.15;17.95;;;14.40;88.40;;;;;;4970352;28;20046;-81
2022/06/09 04:06:38;;;;;;;36.40;17.98;;;14.40;58.90;;;;;;4971567;28;20042;-81
2022/06/09 04:09:05;;;;;;;34.60;16.27;;;14.40;23.00;;;;;;4951965;28;20082;-81
2022/06/09 04:11:32;;;;;;;33.85;17.40;;;14.20;7.80;;;;;;4952591;28;20065;-81
2022/06/09 04:13:58;;;;;;;28.23;16.08;;;14.40;9.90;;;;;;4972422;28;20073;-81
2022/06/09 04:16:37;;;;;;;31.20;15.77;;;14.40;37.80;;;;;;4981953;28;20061;-81
2022/06/09 04:19:07;;;;;;;29.02;15.02;;;14.40;1.50;;;;;;4986125;28;20137;-81
2022/06/09 04:21:34;;;;;;;28.60;15.98;;;14.40;20.60;;;;;;4964389;28;20053;-81
2022/06/09 04:24:00;;;;;;;27.23;15.30;;;14.40;17.50;;;;;;4964301;28;20424;-82
2022/06/09 04:26:31;;;;;;;26.52;16.33;;;14.50;23.40;;;;;;4962786;28;20138;-81
2022/06/09 04:28:56;;;;;;;32.35;15.93;;;14.50;30.20;;;;;;4963770;28;20109;-81
2022/06/09 04:31:22;;;;;;;32.60;14.57;;;14.50;39.40;;;;;;4967014;28;20574;-82
2022/06/09 04:33:51;;;;;;;22.75;13.93;;;14.50;1.00;;;;;;4965028;28;20167;-81
2022/06/09 04:36:22;;;;;;;28.38;15.20;;;14.60;29.80;;;;;;4966995;28;20328;-82
2022/06/09 04:38:48;;;;;;;26.65;15.95;;;14.60;60.00;;;;;;4962898;28;20043;-81
2022/06/09 04:41:15;;;;;;;22.85;15.00;;;14.50;16.60;;;;;;4966243;28;20052;-81
2022/06/09 04:43:44;;;;;;;23.65;14.10;;;14.60;62.30;;;;;;4952421;28;20113;-81
2022/06/09 04:46:12;;;;;;;21.60;14.00;;;14.60;1.00;;;;;;4976337;28;20054;-81
2022/06/09 04:48:38;;;;;;;26.02;14.55;;;14.70;44.40;;;;;;4964257;28;20053;-81
2022/06/09 04:51:06;;;;;;;22.10;15.13;;;14.70;1.00;;;;;;4968305;28;20054;-81
2022/06/09 04:53:35;;;;;;;26.10;14.57;;;14.60;1.00;;;;;;4956922;28;20149;-81
2022/06/09 04:56:02;;;;;;;31.45;14.65;;;14.60;1.00;;;;;;4963636;28;20149;-81
2022/06/09 04:58:28;;;;;;;20.80;14.50;;;14.70;1.00;;;;;;4967130;28;20049;-81
2022/06/09 05:00:53;;;;;;;24.40;15.55;;;14.60;1.00;;;;;;4969100;28;20477;-82
2022/06/09 05:03:20;;;;;;;25.65;15.90;;;14.50;99.90;;;;;;4978228;28;20101;-81
2022/06/09 05:05:48;;;;;;;25.88;15.75;;;14.50;1.00;;;;;;4964235;28;20050;-81
2022/06/09 05:08:17;;;;;;;23.80;16.95;;;14.50;99.90;;;;;;4987973;28;20050;-81
2022/06/09 05:10:45;;;;;;;26.83;17.63;;;14.40;1.00;;;;;;4965179;28;20503;-81
2022/06/09 05:13:11;;;;;;;28.15;18.25;;;14.40;1.00;;;;;;4967510;28;20397;-81
2022/06/09 05:15:50;;;;;;;28.55;19.50;;;14.40;1.00;;;;;;4949652;28;20556;-81
2022/06/09 05:18:18;;;;;;;27.58;19.02;;;14.40;1.00;;;;;;4980647;28;20085;-82
2022/06/09 05:20:44;;;;;;;28.75;19.58;;;14.50;1.00;;;;;;4978876;28;20542;-81
2022/06/09 05:23:10;;;;;;;29.58;19.98;;;14.40;1.00;;;;;;4965801;28;20054;-81
2022/06/09 05:25:35;;;;;;;31.88;21.27;;;14.50;1.00;;;;;;4962878;28;20046;-82
2022/06/09 05:28:01;;;;;;;27.92;20.08;;;14.50;1.00;;;;;;4961014;28;20200;-81
2022/06/09 05:30:27;;;;;;;27.05;19.95;;;14.50;1.00;;;;;;4967083;28;20042;-81
2022/06/09 05:32:53;;;;;;;32.15;19.92;;;14.60;99.90;;;;;;4948372;28;20038;-81
2022/06/09 05:35:21;;;;;;;29.83;21.45;;;14.60;1.00;;;;;;4986628;28;20037;-81
2022/06/09 05:46:02;;;;;;;27.90;21.88;;;14.80;1.00;;;;;;4973397;28;20118;-81
2022/06/09 05:48:30;;;;;;;29.65;22.50;;;14.80;99.90;;;;;;4962288;28;20608;-81
2022/06/09 05:50:56;;;;;;;28.80;22.17;;;15.00;99.90;;;;;;4948791;28;20051;-81
2022/06/09 05:53:23;;;;;;;31.35;21.92;;;15.00;99.90;;;;;;4963046;28;20050;-81
2022/06/09 05:55:49;;;;;;;28.98;22.42;;;15.10;99.90;;;;;;4962004;28;20050;-82
2022/06/09 05:58:14;;;;;;;31.30;22.40;;;15.00;99.90;;;;;;4970549;28;20037;-81
2022/06/09 06:00:41;;;;;;;32.35;22.85;;;14.90;99.90;;;;;;4963188;28;20398;-81
2022/06/09 06:03:12;;;;;;;31.20;22.15;;;14.80;99.90;;;;;;4965450;28;20055;-81
2022/06/09 06:08:23;;;;;;;30.45;21.08;;;14.80;99.90;;;;;;4982884;28;20042;-81
2022/06/09 06:10:48;;;;;;;30.40;20.40;;;14.60;99.90;;;;;;4979474;28;20312;-81
2022/06/09 06:13:14;;;;;;;28.73;21.52;;;14.70;99.90;;;;;;4963043;28;20105;-81
2022/06/09 06:15:42;;;;;;;32.90;22.05;;;14.80;99.90;;;;;;4963531;28;20054;-81
2022/06/09 06:18:08;;;;;;;30.50;22.55;;;14.80;99.90;;;;;;4949727;28;20585;-82
2022/06/09 06:20:35;;;;;;;29.00;22.40;;;14.90;99.90;;;;;;4960461;28;20078;-82
2022/06/09 06:23:00;;;;;;;30.20;21.92;;;14.80;99.90;;;;;;4960004;28;20046;-82
2022/06/09 06:25:26;;;;;;;32.85;23.88;;;14.80;99.90;;;;;;4988978;28;20347;-82
2022/06/09 06:27:53;;;;;;;31.80;23.30;;;14.90;99.90;;;;;;4949079;28;20047;-81
2022/06/09 06:30:19;;;;;;;29.58;23.05;;;15.10;70.60;;;;;;4969675;28;20482;-82
2022/06/09 06:32:45;;;;;;;29.48;22.77;;;15.40;99.90;;;;;;4964433;28;20047;-81
2022/06/09 06:35:12;;;;;;;30.23;23.00;;;15.50;1.00;;;;;;4991740;28;20193;-82
2022/06/09 06:37:38;;;;;;;29.60;23.33;;;15.70;1.00;;;;;;4970053;28;20043;-81
2022/06/09 06:40:04;;;;;;;29.70;21.88;;;15.90;1.00;;;;;;4968542;28;20390;-81
2022/06/09 06:42:30;;;;;;;29.17;22.23;;;15.80;99.90;;;;;;4985172;28;20148;-82
2022/06/09 06:44:56;;;;;;;32.55;23.30;;;16.00;99.90;;;;;;4970004;28;20133;-82
2022/06/09 06:47:22;;;;;;;26.70;21.60;;;16.30;99.90;;;;;;4979313;28;20490;-82
2022/06/09 06:49:48;;;;;;;29.45;22.95;;;16.00;99.90;;;;;;4969259;28;20031;-81
2022/06/09 06:52:14;;;;;;;29.42;21.23;;;16.10;99.90;;;;;;4966405;28;20362;-81
2022/06/09 06:54:39;;;;;;;25.45;21.38;;;16.30;99.90;;;;;;4993150;28;20053;-82
2022/06/09 06:57:07;;;;;;;26.77;22.05;;;16.50;99.90;;;;;;4964200;28;20501;-82
2022/06/09 06:59:33;;;;;;;24.48;20.38;;;16.70;99.90;;;;;;4975307;28;20130;-81
2022/06/09 07:01:59;;;;;;;26.10;20.88;;;16.40;99.90;;;;;;4966705;28;20053;-82
2022/06/09 07:04:26;;;;;;;22.17;19.58;;;16.50;99.90;;;;;;4984289;28;20408;-82
2022/06/09 07:06:56;;;;;;;20.83;17.25;;;16.30;99.90;;;;;;4975621;28;20302;-82
2022/06/09 07:09:23;;;;;;;19.15;17.00;;;16.10;99.90;;;;;;4966742;28;20114;-82
2022/06/09 07:11:49;;;;;;;19.30;16.40;;;16.30;99.90;;;;;;4994086;28;20187;-82
2022/06/09 07:14:14;;;;;;;18.80;16.02;;;16.50;99.90;;;;;;4967484;28;20123;-82
2022/06/09 07:16:40;;;;;;;17.58;15.25;;;17.00;99.90;;;;;;4966337;28;20057;-82
2022/06/09 07:19:06;;;;;;;17.02;15.13;;;17.10;99.90;;;;;;4972345;28;20288;-82
2022/06/09 07:21:34;;;;;;;14.85;13.07;;;17.00;99.90;;;;;;4966218;28;20046;-82
2022/06/09 07:24:00;;;;;;;14.68;12.30;;;17.20;99.90;;;;;;4992781;28;20046;-82
2022/06/09 07:26:26;;;;;;;14.85;11.77;;;16.90;99.90;;;;;;4963192;28;20175;-81
2022/06/09 07:28:52;;;;;;;14.43;11.23;;;16.50;96.00;;;;;;4987305;28;20050;-82
2022/06/09 07:31:18;;;;;;;14.48;10.50;;;16.90;99.90;;;;;;4968935;28;20072;-81
2022/06/09 07:33:44;;;;;;;11.75;10.52;;;17.40;99.90;;;;;;4965777;28;20391;-82
2022/06/09 07:36:17;;;;;;;12.25;10.35;;;17.20;99.90;;;;;;4967932;28;20146;-82
2022/06/09 07:38:43;;;;;;;12.40;8.70;;;17.10;94.30;;;;;;4961955;28;20216;-82
2022/06/09 07:41:09;;;;;;;8.73;7.63;;;17.40;1.00;;;;;;4963980;28;20042;-82
2022/06/09 07:43:36;;;;;;;10.57;8.40;;;17.50;1.00;;;;;;4967856;28;20421;-82
2022/06/09 07:46:01;;;;;;;10.68;8.93;;;17.60;1.00;;;;;;4967053;28;20046;-82
2022/06/09 07:48:28;;;;;;;11.93;8.00;;;17.40;1.00;;;;;;4963618;28;20340;-81
2022/06/09 07:50:54;;;;;;;10.63;6.63;;;17.30;1.00;;;;;;4966846;28;20516;-82
2022/06/09 07:53:22;;;;;;;7.63;4.93;;;17.20;1.00;;;;;;4965275;28;20160;-81
2022/06/09 07:55:48;;;;;;;9.77;5.55;;;17.70;1.00;;;;;;4965481;28;20049;-82
2022/06/09 07:58:14;;;;;;;6.75;5.28;;;17.50;99.90;;;;;;4967114;28;20050;-82
2022/06/09 08:00:41;;;;;;;7.15;5.55;;;17.70;99.90;;;;;;4992751;28;20043;-82
2022/06/09 08:03:07;;;;;;;8.80;5.70;;;17.60;1.00;;;;;;4964312;28;20129;-82
2022/06/09 08:05:34;;;;;;;6.68;5.32;;;17.80;99.90;;;;;;4965062;28;20498;-82
2022/06/09 08:08:02;;;;;;;7.82;5.00;;;17.90;99.90;;;;;;4971738;28;20038;-82
2022/06/09 08:10:29;;;;;;;6.55;4.28;;;17.90;1.00;;;;;;4978959;28;20409;-82
2022/06/09 08:12:58;;;;;;;7.38;3.85;;;18.30;1.00;;;;;;4967576;28;20042;-82
2022/06/09 08:15:25;;;;;;;5.88;4.30;;;18.30;99.90;;;;;;4965633;28;20280;-82
2022/06/09 08:17:56;;;;;;;5.68;3.55;;;18.20;99.90;;;;;;4966316;28;20042;-80
2022/06/09 08:20:23;;;;;;;5.05;3.20;;;18.30;99.90;;;;;;4977292;28;20043;-80
2022/06/09 08:22:50;;;;;;;9.55;3.28;;;18.40;99.90;;;;;;4963886;28;20044;-80
2022/06/09 08:25:18;;;;;;;6.18;3.45;;;18.10;99.90;;;;;;4961277;28;20113;-80
2022/06/09 08:27:45;;;;;;;5.28;3.75;;;18.50;99.90;;;;;;4991937;28;20046;-80
2022/06/09 08:30:13;;;;;;;4.50;2.30;;;18.60;99.90;;;;;;4967876;28;20430;-80
2022/06/09 08:32:39;;;;;;;3.35;2.13;;;18.70;99.90;;;;;;4980818;28;20055;-80
2022/06/09 08:35:09;;;;;;;4.90;2.70;;;18.70;99.90;;;;;;4976085;28;20130;-80
2022/06/09 08:37:35;;;;;;;5.78;2.10;;;19.30;99.90;;;;;;4986537;28;20035;-83
2022/06/09 08:40:01;;;;;;;4.20;2.00;;;19.00;99.90;;;;;;4962903;28;20073;-82
2022/06/09 08:42:56;;;;;;;3.75;2.33;;;19.00;99.90;;;;;;4962587;28;20051;-82
2022/06/09 08:45:35;;;;;;;4.80;2.53;;;18.60;99.90;;;;;;4985806;28;20055;-82
2022/06/09 08:48:03;;;;;;;7.20;2.75;;;18.80;99.90;;;;;;4980063;28;20035;-82
2022/06/09 08:51:10;;;;;;;4.78;2.22;;;18.40;99.90;;;;;;4964924;28;20077;-82
2022/06/09 08:53:48;;;;;;;3.78;2.15;;;18.90;99.90;;;;;;4947282;28;20641;-82
2022/06/09 08:56:26;;;;;;;6.97;1.83;;;18.90;99.90;;;;;;4971513;28;20047;-79
2022/06/09 08:59:13;;;;;;;3.97;1.67;;;18.70;99.90;;;;;;4961438;28;20050;-81
2022/06/09 09:02:30;;;;;;;4.15;1.67;;;19.10;99.90;;;;;;4960654;28;20047;-81
2022/06/09 09:05:14;;;;;;;4.85;1.63;;;19.40;99.90;;;;;;4991184;28;20067;-82
2022/06/09 09:07:46;;;;;;;5.75;2.00;;;19.40;99.90;;;;;;4969970;28;20081;-82
2022/06/09 09:10:19;;;;;;;3.47;1.65;;;19.20;99.90;;;;;;4962897;28;20533;-82
2022/06/09 09:12:53;;;;;;;4.97;1.77;;;19.50;99.90;;;;;;4966161;28;20038;-82
2022/06/09 09:15:33;;;;;;;6.10;1.85;;;19.90;99.90;;;;;;4968442;28;20057;-82
2022/06/09 09:18:10;;;;;;;3.90;1.30;;;19.50;99.90;;;;;;4994916;28;20045;-82
2022/06/09 09:20:40;;;;;;;4.88;1.38;;;19.40;99.90;;;;;;4961753;28;20034;-81
2022/06/09 09:23:18;;;;;;;4.28;1.52;;;19.70;99.90;;;;;;4990652;28;20050;-80
2022/06/09 09:26:23;;;;;;;6.15;1.73;;;20.00;99.90;;;;;;4962368;28;20487;-79
2022/06/09 09:29:08;;;;;;;4.25;1.45;;;20.00;99.90;;;;;;4950677;28;20046;-80
2022/06/09 09:31:46;;;;;;;4.68;1.63;;;19.80;99.90;;;;;;4976246;28;20301;-82
2022/06/09 09:34:16;;;;;;;6.22;1.67;;;19.80;99.90;;;;;;4965680;28;20042;-82
2022/06/09 09:36:49;;;;;;;6.55;1.80;;;19.60;99.90;;;;;;4963436;28;20391;-82
2022/06/09 09:39:20;;;;;;;9.43;2.13;;;19.40;99.90;;;;;;4993671;28;20105;-82
2022/06/09 09:41:46;;;;;;;3.35;1.60;;;20.00;99.90;;;;;;4991539;28;20035;-82
2022/06/09 09:44:16;;;;;;;5.53;1.70;;;20.00;99.90;;;;;;4991250;28;20085;-82
2022/06/09 09:46:48;;;;;;;5.18;1.60;;;20.30;99.90;;;;;;4972730;28;20051;-82
2022/06/09 09:49:23;;;;;;;4.07;1.70;;;20.90;99.90;;;;;;4959606;28;20046;-82
2022/06/09 09:51:49;;;;;;;3.90;1.52;;;20.70;99.90;;;;;;4989756;28;20038;-82
2022/06/09 09:54:31;;;;;;;3.80;2.00;;;20.10;99.90;;;;;;4945070;28;20241;-80
2022/06/09 09:57:21;;;;;;;7.32;1.92;;;19.70;99.90;;;;;;4991454;28;20462;-82
2022/06/09 09:59:57;;;;;;;5.80;2.00;;;19.40;99.90;;;;;;4976358;28;20141;-81
2022/06/09 10:08:40;;;;;;;7.25;1.60;;;20.50;99.90;;;;;;4995131;28;20046;-82
2022/06/09 10:14:38;;;;;;;5.50;1.70;;;19.70;99.90;;;;;;4957260;28;20069;-81
2022/06/09 10:17:26;;;;;;;6.68;1.50;;;19.70;99.90;;;;;;4961321;28;20057;-82
2022/06/09 10:20:19;;;;;;;4.40;1.40;;;20.30;99.90;;;;;;4956363;28;20077;-82
2022/06/09 10:23:16;;;;;;;5.53;1.33;;;20.50;99.90;;;;;;4985589;28;20038;-82
2022/06/09 10:26:08;;;;;;;4.97;1.55;;;21.10;99.90;;;;;;4964657;28;20525;-82
2022/06/09 10:28:50;;;;;;;4.60;1.40;;;21.20;99.90;;;;;;4963391;28;20705;-82
2022/06/09 10:31:41;;;;;;;4.45;1.40;;;20.70;99.90;;;;;;4970050;28;20183;-81
2022/06/09 10:34:36;;;;;;;6.07;1.50;;;20.20;99.90;;;;;;4960311;28;20061;-82
2022/06/09 10:37:30;;;;;;;4.60;1.30;;;20.10;99.90;;;;;;4981468;28;20085;-82
2022/06/09 10:40:11;;;;;;;4.65;1.40;;;20.00;99.90;;;;;;4958810;28;20046;-82
2022/06/09 10:42:52;;;;;;;5.65;1.35;;;20.30;99.90;;;;;;4957550;28;20103;-82
2022/06/09 10:45:43;;;;;;;2.80;1.20;;;20.80;99.90;;;;;;4960466;28;20034;-82
2022/06/09 10:57:31;;;;;;;3.97;0.95;;;21.30;99.90;;;;;;4987521;28;20814;-82
2022/06/09 11:00:19;;;;;;;4.38;1.33;;;20.80;99.90;;;;;;4964159;28;20047;-81
2022/06/09 11:02:50;;;;;;;3.90;1.30;;;20.80;99.90;;;;;;4951397;28;20156;-82
2022/06/09 11:05:20;;;;;;;3.67;1.10;;;21.20;99.90;;;;;;4965320;28;20031;-82
2022/06/09 11:08:13;;;;;;;3.70;1.10;;;21.40;99.90;;;;;;4988060;28;20150;-82
2022/06/09 11:11:11;;;;;;;6.85;1.45;;;21.10;99.90;;;;;;4964656;28;20053;-82
2022/06/09 11:14:10;;;;;;;2.55;1.10;;;21.40;99.90;;;;;;4943279;28;20295;-82
2022/06/09 11:17:21;;;;;;;1.38;0.80;;;20.70;99.90;;;;;;4958838;28;20512;-82
2022/06/09 11:20:01;;;;;;;3.22;1.30;;;20.70;99.90;;;;;;4918573;28;20223;-81
2022/06/09 11:22:36;;;;;;;5.25;1.10;;;21.40;99.90;;;;;;4913473;28;20310;-81
2022/06/09 11:25:07;;;;;;;4.03;1.23;;;21.50;99.90;;;;;;4965255;28;20057;-81
2022/06/09 11:28:06;;;;;;;3.33;1.05;;;21.00;99.90;;;;;;4968747;28;20659;-82
2022/06/09 11:30:38;;;;;;;3.97;1.35;;;20.90;99.90;;;;;;4970227;28;20137;-81
2022/06/09 11:33:16;;;;;;;3.67;1.10;;;21.60;99.90;;;;;;4966219;28;20035;-81
2022/06/09 11:36:13;;;;;;;5.68;1.27;;;21.60;99.90;;;;;;4992402;28;20125;-82
2022/06/09 11:38:39;;;;;;;3.58;1.23;;;21.10;99.90;;;;;;4967875;28;20082;-82
2022/06/09 11:41:21;;;;;;;4.72;1.13;;;21.50;99.90;;;;;;4965445;28;20551;-81
2022/06/09 11:44:13;;;;;;;5.65;1.55;;;20.80;99.90;;;;;;4960913;28;20324;-82
2022/06/09 11:46:41;;;;;;;5.28;1.20;;;20.70;99.90;;;;;;4956836;28;20051;-82
2022/06/09 11:49:30;;;;;;;4.15;1.42;;;21.10;1.00;;;;;;4981129;28;20384;-82
2022/06/09 11:51:56;;;;;;;4.50;1.27;;;21.20;99.90;;;;;;4958662;28;20146;-81
2022/06/09 11:54:44;;;;;;;4.22;1.20;;;21.00;99.90;;;;;;4974622;28;20514;-82
2022/06/09 11:57:41;;;;;;;2.95;1.20;;;21.30;99.90;;;;;;4963272;28;20134;-82
2022/06/09 12:00:19;;;;;;;5.20;1.58;;;20.30;1.00;;;;;;4985393;28;20038;-81
2022/06/09 12:02:57;;;;;;;2.03;1.10;;;20.60;99.90;;;;;;4947574;28;20051;-82
2022/06/09 12:05:34;;;;;;;4.43;1.40;;;20.80;53.50;;;;;;4983930;28;20050;-82
2022/06/09 12:08:24;;;;;;;3.67;1.02;;;21.30;99.90;;;;;;4963094;28;20097;-81
2022/06/09 12:10:56;;;;;;;5.30;1.30;;;20.50;99.90;;;;;;4991403;28;20114;-82
2022/06/09 12:13:25;;;;;;;3.65;1.30;;;20.50;99.90;;;;;;4963770;28;20038;-82
2022/06/09 12:16:25;;;;;;;5.13;1.38;;;21.00;99.90;;;;;;4967575;28;20291;-81
2022/06/09 12:19:14;;;;;;;5.30;1.50;;;20.80;1.00;;;;;;4991590;28;20043;-82
2022/06/09 12:21:44;;;;;;;3.90;1.40;;;21.10;99.90;;;;;;4993728;28;20062;-81
2022/06/09 12:24:12;;;;;;;6.72;1.50;;;21.70;28.00;;;;;;4963428;28;20074;-82
2022/06/09 12:26:44;;;;;;;6.22;1.88;;;21.10;97.20;;;;;;4981336;28;20125;-82
2022/06/09 12:29:30;;;;;;;4.70;1.48;;;20.90;1.00;;;;;;4978558;28;20039;-82
2022/06/09 12:32:08;;;;;;;5.75;1.45;;;20.50;99.90;;;;;;4992523;28;20194;-82
2022/06/09 12:34:46;;;;;;;5.45;1.63;;;20.80;99.90;;;;;;4964551;28;20038;-81
2022/06/09 12:37:37;;;;;;;5.10;1.75;;;20.70;99.90;;;;;;4964135;28;20106;-82
2022/06/09 12:40:22;;;;;;;5.10;1.70;;;20.20;99.90;;;;;;4993394;28;20058;-81
2022/06/09 12:43:01;;;;;;;3.08;1.27;;;20.20;99.90;;;;;;4958522;28;20058;-82
2022/06/09 12:45:28;;;;;;;4.32;1.38;;;20.00;99.90;;;;;;4960686;28;20039;-82
2022/06/09 12:47:56;;;;;;;4.85;1.50;;;20.00;99.90;;;;;;4950145;28;20397;-82
2022/06/09 12:50:33;;;;;;;4.30;1.27;;;19.80;99.90;;;;;;4977298;28;20039;-82
2022/06/09 12:53:00;;;;;;;2.10;1.00;;;20.30;99.90;;;;;;4962058;28;20054;-82
2022/06/09 12:55:32;;;;;;;4.13;1.30;;;20.40;39.00;;;;;;4962546;28;20045;-82
2022/06/09 12:58:09;;;;;;;4.53;1.23;;;20.80;1.00;;;;;;4964816;28;20034;-82
2022/06/09 13:00:37;;;;;;;5.45;1.40;;;21.00;18.40;;;;;;4964978;28;20492;-82
2022/06/09 13:03:24;;;;;;;4.10;1.17;;;20.50;15.30;;;;;;4967475;28;20041;-82
2022/06/09 13:05:51;;;;;;;3.45;1.40;;;20.10;34.10;;;;;;4962759;28;20046;-82
2022/06/09 13:08:21;;;;;;;6.18;1.60;;;19.90;72.80;;;;;;4962812;28;20650;-82
2022/06/09 13:10:57;;;;;;;4.35;1.30;;;20.30;99.90;;;;;;4965082;28;20075;-82
2022/06/09 13:13:36;;;;;;;3.97;1.50;;;20.60;1.00;;;;;;4966858;28;20402;-82
2022/06/09 13:16:07;;;;;;;5.47;1.83;;;21.10;1.00;;;;;;4973262;28;20450;-82
2022/06/09 13:18:39;;;;;;;3.75;1.52;;;20.70;99.90;;;;;;4976635;28;20360;-82
2022/06/09 13:21:22;;;;;;;4.53;1.38;;;20.90;99.90;;;;;;4976649;28;20363;-82
2022/06/09 13:23:51;;;;;;;5.72;1.80;;;20.70;99.90;;;;;;4977020;28;20058;-82
2022/06/09 13:26:27;;;;;;;3.80;1.38;;;20.90;99.90;;;;;;4964828;28;20047;-82
2022/06/09 13:28:57;;;;;;;3.67;1.38;;;21.40;99.90;;;;;;4967547;28;20125;-82
2022/06/09 13:31:31;;;;;;;3.80;1.50;;;21.10;67.60;;;;;;4966401;28;20469;-82
2022/06/09 13:34:02;;;;;;;4.95;1.60;;;20.90;43.70;;;;;;4965857;28;20379;-82